Aviation Digital Data Service (ADDS)

Output produced by TAFs form (0801 UTC 18 April 2014)
found at http://aviationweather.gov/adds/tafs/
 
KAMA 180800Z 1808/1906 15006KT P6SM FEW014 
     TEMPO 1810/1814 2SM BR BKN010 
     FM181500 18016G26KT P6SM SKC 
     FM190200 16016KT P6SM SCT200